sensor_id;sensor_type;location;lat;lon;timestamp;temperature;humidity
12111;DHT22;6119;52.372;8.990;2022-09-04T00:01:48;18.50;93.40
12111;DHT22;6119;52.372;8.990;2022-09-04T00:04:40;18.60;93.60
12111;DHT22;6119;52.372;8.990;2022-09-04T00:07:37;18.50;93.60
12111;DHT22;6119;52.372;8.990;2022-09-04T00:10:28;18.40;93.60
12111;DHT22;6119;52.372;8.990;2022-09-04T00:13:19;18.40;93.90
12111;DHT22;6119;52.372;8.990;2022-09-04T00:16:10;18.30;93.90
12111;DHT22;6119;52.372;8.990;2022-09-04T00:19:02;18.30;94.00
12111;DHT22;6119;52.372;8.990;2022-09-04T00:21:52;18.30;94.00
12111;DHT22;6119;52.372;8.990;2022-09-04T00:24:44;18.30;94.10
12111;DHT22;6119;52.372;8.990;2022-09-04T00:27:35;18.20;94.30
12111;DHT22;6119;52.372;8.990;2022-09-04T00:30:28;18.30;94.20
12111;DHT22;6119;52.372;8.990;2022-09-04T00:33:18;18.10;94.40
12111;DHT22;6119;52.372;8.990;2022-09-04T00:36:06;18.10;94.30
12111;DHT22;6119;52.372;8.990;2022-09-04T00:38:55;18.10;94.50
12111;DHT22;6119;52.372;8.990;2022-09-04T00:41:57;18.00;94.40
12111;DHT22;6119;52.372;8.990;2022-09-04T00:44:56;18.00;94.80
12111;DHT22;6119;52.372;8.990;2022-09-04T00:48:08;18.00;94.80
12111;DHT22;6119;52.372;8.990;2022-09-04T00:51:24;18.00;94.90
12111;DHT22;6119;52.372;8.990;2022-09-04T00:54:38;17.90;94.80
12111;DHT22;6119;52.372;8.990;2022-09-04T00:57:50;18.00;95.20
12111;DHT22;6119;52.372;8.990;2022-09-04T01:00:42;17.90;95.30
12111;DHT22;6119;52.372;8.990;2022-09-04T01:03:39;17.90;95.30
12111;DHT22;6119;52.372;8.990;2022-09-04T01:06:34;17.90;95.40
12111;DHT22;6119;52.372;8.990;2022-09-04T01:09:48;17.80;95.50
12111;DHT22;6119;52.372;8.990;2022-09-04T01:12:41;17.80;95.80
12111;DHT22;6119;52.372;8.990;2022-09-04T01:15:36;17.80;95.90
12111;DHT22;6119;52.372;8.990;2022-09-04T01:18:29;17.70;95.90
12111;DHT22;6119;52.372;8.990;2022-09-04T01:21:28;17.70;96.10
12111;DHT22;6119;52.372;8.990;2022-09-04T01:24:49;17.70;96.00
12111;DHT22;6119;52.372;8.990;2022-09-04T01:27:49;17.50;96.00
12111;DHT22;6119;52.372;8.990;2022-09-04T01:30:44;17.50;96.40
12111;DHT22;6119;52.372;8.990;2022-09-04T01:33:39;17.50;96.60
12111;DHT22;6119;52.372;8.990;2022-09-04T01:36:35;17.50;96.50
12111;DHT22;6119;52.372;8.990;2022-09-04T01:39:25;17.50;96.80
12111;DHT22;6119;52.372;8.990;2022-09-04T01:42:17;17.50;96.70
12111;DHT22;6119;52.372;8.990;2022-09-04T01:45:09;17.40;97.20
12111;DHT22;6119;52.372;8.990;2022-09-04T01:48:02;17.50;97.20
12111;DHT22;6119;52.372;8.990;2022-09-04T01:50:57;17.40;97.30
12111;DHT22;6119;52.372;8.990;2022-09-04T01:53:53;17.40;97.40
12111;DHT22;6119;52.372;8.990;2022-09-04T01:56:47;17.40;97.40
12111;DHT22;6119;52.372;8.990;2022-09-04T01:59:45;17.30;97.70
12111;DHT22;6119;52.372;8.990;2022-09-04T02:02:58;17.40;98.00
12111;DHT22;6119;52.372;8.990;2022-09-04T02:05:59;17.30;98.30
12111;DHT22;6119;52.372;8.990;2022-09-04T02:09:04;17.30;98.40
12111;DHT22;6119;52.372;8.990;2022-09-04T02:12:05;17.20;98.70
12111;DHT22;6119;52.372;8.990;2022-09-04T02:15:00;17.10;98.80
12111;DHT22;6119;52.372;8.990;2022-09-04T02:17:59;17.00;99.30
12111;DHT22;6119;52.372;8.990;2022-09-04T02:20:54;17.00;99.70
12111;DHT22;6119;52.372;8.990;2022-09-04T02:23:47;16.90;99.90
12111;DHT22;6119;52.372;8.990;2022-09-04T02:26:39;16.90;99.90
12111;DHT22;6119;52.372;8.990;2022-09-04T02:29:32;16.80;99.90
12111;DHT22;6119;52.372;8.990;2022-09-04T02:32:27;16.80;99.90
12111;DHT22;6119;52.372;8.990;2022-09-04T02:35:31;16.80;99.90
12111;DHT22;6119;52.372;8.990;2022-09-04T02:38:25;16.80;99.90
12111;DHT22;6119;52.372;8.990;2022-09-04T02:41:21;16.80;99.90
12111;DHT22;6119;52.372;8.990;2022-09-04T02:44:19;16.70;99.90
12111;DHT22;6119;52.372;8.990;2022-09-04T02:47:16;16.70;99.90
12111;DHT22;6119;52.372;8.990;2022-09-04T02:50:10;16.70;99.90
12111;DHT22;6119;52.372;8.990;2022-09-04T02:53:09;16.60;99.90
12111;DHT22;6119;52.372;8.990;2022-09-04T02:56:12;16.60;99.90
12111;DHT22;6119;52.372;8.990;2022-09-04T02:59:14;16.60;99.90
12111;DHT22;6119;52.372;8.990;2022-09-04T03:02:04;16.50;99.90
12111;DHT22;6119;52.372;8.990;2022-09-04T03:04:57;16.50;99.90
12111;DHT22;6119;52.372;8.990;2022-09-04T03:07:51;16.60;99.90
12111;DHT22;6119;52.372;8.990;2022-09-04T03:10:44;16.50;99.90
12111;DHT22;6119;52.372;8.990;2022-09-04T03:13:37;16.50;99.90
12111;DHT22;6119;52.372;8.990;2022-09-04T03:16:32;16.40;99.90
12111;DHT22;6119;52.372;8.990;2022-09-04T03:19:26;16.30;99.90
12111;DHT22;6119;52.372;8.990;2022-09-04T03:22:18;16.40;99.90
12111;DHT22;6119;52.372;8.990;2022-09-04T03:25:27;16.30;99.90
12111;DHT22;6119;52.372;8.990;2022-09-04T03:28:28;16.30;99.90
12111;DHT22;6119;52.372;8.990;2022-09-04T03:31:27;16.30;99.90
12111;DHT22;6119;52.372;8.990;2022-09-04T03:34:26;16.40;99.90
12111;DHT22;6119;52.372;8.990;2022-09-04T03:37:35;16.40;99.90
12111;DHT22;6119;52.372;8.990;2022-09-04T03:40:36;16.30;99.90
12111;DHT22;6119;52.372;8.990;2022-09-04T03:43:38;16.30;99.90
12111;DHT22;6119;52.372;8.990;2022-09-04T03:46:41;16.20;99.90
12111;DHT22;6119;52.372;8.990;2022-09-04T03:49:42;16.20;99.90
12111;DHT22;6119;52.372;8.990;2022-09-04T03:52:38;16.20;99.90
12111;DHT22;6119;52.372;8.990;2022-09-04T03:55:55;16.10;99.90
12111;DHT22;6119;52.372;8.990;2022-09-04T03:58:54;16.00;99.90
12111;DHT22;6119;52.372;8.990;2022-09-04T04:01:50;16.00;99.90
12111;DHT22;6119;52.372;8.990;2022-09-04T04:05:02;16.10;99.90
12111;DHT22;6119;52.372;8.990;2022-09-04T04:08:02;16.10;99.90
12111;DHT22;6119;52.372;8.990;2022-09-04T04:11:00;15.90;99.90
12111;DHT22;6119;52.372;8.990;2022-09-04T04:14:10;16.00;99.90
12111;DHT22;6119;52.372;8.990;2022-09-04T04:17:07;15.90;99.90
12111;DHT22;6119;52.372;8.990;2022-09-04T04:20:06;16.00;99.90
12111;DHT22;6119;52.372;8.990;2022-09-04T04:23:11;16.00;99.90
12111;DHT22;6119;52.372;8.990;2022-09-04T04:26:07;15.80;99.90
12111;DHT22;6119;52.372;8.990;2022-09-04T04:29:23;15.70;99.90
12111;DHT22;6119;52.372;8.990;2022-09-04T04:32:47;15.70;99.90
12111;DHT22;6119;52.372;8.990;2022-09-04T04:35:42;15.90;99.90
12111;DHT22;6119;52.372;8.990;2022-09-04T04:38:38;15.90;99.90
12111;DHT22;6119;52.372;8.990;2022-09-04T04:41:41;15.90;99.90
12111;DHT22;6119;52.372;8.990;2022-09-04T04:45:00;15.90;99.90
12111;DHT22;6119;52.372;8.990;2022-09-04T04:48:33;15.80;99.90
12111;DHT22;6119;52.372;8.990;2022-09-04T04:52:07;15.70;99.90
12111;DHT22;6119;52.372;8.990;2022-09-04T04:55:08;15.70;99.90
12111;DHT22;6119;52.372;8.990;2022-09-04T04:58:18;15.60;99.90
12111;DHT22;6119;52.372;8.990;2022-09-04T05:01:15;15.70;99.90
12111;DHT22;6119;52.372;8.990;2022-09-04T05:04:09;15.60;99.90
12111;DHT22;6119;52.372;8.990;2022-09-04T05:07:02;15.60;99.90
12111;DHT22;6119;52.372;8.990;2022-09-04T05:09:56;15.60;99.90
12111;DHT22;6119;52.372;8.990;2022-09-04T05:12:58;15.50;99.90
12111;DHT22;6119;52.372;8.990;2022-09-04T05:15:53;15.70;99.90
12111;DHT22;6119;52.372;8.990;2022-09-04T05:18:58;15.70;99.90
12111;DHT22;6119;52.372;8.990;2022-09-04T05:21:51;15.80;99.90
12111;DHT22;6119;52.372;8.990;2022-09-04T05:24:47;15.80;99.90
12111;DHT22;6119;52.372;8.990;2022-09-04T05:27:51;15.70;99.90
12111;DHT22;6119;52.372;8.990;2022-09-04T05:30:46;15.70;99.90
12111;DHT22;6119;52.372;8.990;2022-09-04T05:33:39;15.70;99.90
12111;DHT22;6119;52.372;8.990;2022-09-04T05:36:38;15.80;99.90
12111;DHT22;6119;52.372;8.990;2022-09-04T05:39:28;15.70;99.90
12111;DHT22;6119;52.372;8.990;2022-09-04T05:42:40;15.80;99.90
12111;DHT22;6119;52.372;8.990;2022-09-04T05:45:35;15.80;99.90
12111;DHT22;6119;52.372;8.990;2022-09-04T05:48:28;15.80;99.90
12111;DHT22;6119;52.372;8.990;2022-09-04T05:51:43;15.90;99.90
12111;DHT22;6119;52.372;8.990;2022-09-04T05:58:01;15.90;99.90
12111;DHT22;6119;52.372;8.990;2022-09-04T06:00:57;15.90;99.90
12111;DHT22;6119;52.372;8.990;2022-09-04T06:03:57;16.00;99.90
12111;DHT22;6119;52.372;8.990;2022-09-04T06:06:57;15.90;99.90
12111;DHT22;6119;52.372;8.990;2022-09-04T06:09:58;16.10;99.90
12111;DHT22;6119;52.372;8.990;2022-09-04T06:13:16;16.10;99.90
12111;DHT22;6119;52.372;8.990;2022-09-04T06:16:17;16.20;99.90
12111;DHT22;6119;52.372;8.990;2022-09-04T06:19:40;16.20;99.90
12111;DHT22;6119;52.372;8.990;2022-09-04T06:22:57;16.20;99.90
12111;DHT22;6119;52.372;8.990;2022-09-04T06:29:11;16.40;99.90
12111;DHT22;6119;52.372;8.990;2022-09-04T06:32:28;16.50;99.90
12111;DHT22;6119;52.372;8.990;2022-09-04T06:35:28;16.50;99.90
12111;DHT22;6119;52.372;8.990;2022-09-04T06:38:30;16.60;99.90
12111;DHT22;6119;52.372;8.990;2022-09-04T06:41:37;16.60;99.90
12111;DHT22;6119;52.372;8.990;2022-09-04T06:44:42;16.60;99.90
12111;DHT22;6119;52.372;8.990;2022-09-04T06:47:39;16.70;99.90
12111;DHT22;6119;52.372;8.990;2022-09-04T06:50:37;16.80;99.90
12111;DHT22;6119;52.372;8.990;2022-09-04T06:53:37;16.80;99.90
12111;DHT22;6119;52.372;8.990;2022-09-04T06:56:39;16.90;99.90
12111;DHT22;6119;52.372;8.990;2022-09-04T06:59:46;17.00;99.90
12111;DHT22;6119;52.372;8.990;2022-09-04T07:02:57;17.20;99.90
12111;DHT22;6119;52.372;8.990;2022-09-04T07:05:53;17.30;99.90
12111;DHT22;6119;52.372;8.990;2022-09-04T07:08:57;17.40;99.90
12111;DHT22;6119;52.372;8.990;2022-09-04T07:12:04;17.40;99.90
12111;DHT22;6119;52.372;8.990;2022-09-04T07:15:14;17.50;99.90
12111;DHT22;6119;52.372;8.990;2022-09-04T07:18:18;17.60;99.90
12111;DHT22;6119;52.372;8.990;2022-09-04T07:21:14;17.70;99.90
12111;DHT22;6119;52.372;8.990;2022-09-04T07:24:10;17.80;99.90
12111;DHT22;6119;52.372;8.990;2022-09-04T07:27:05;17.90;99.90
12111;DHT22;6119;52.372;8.990;2022-09-04T07:30:03;17.90;99.90
12111;DHT22;6119;52.372;8.990;2022-09-04T07:32:53;17.90;99.90
12111;DHT22;6119;52.372;8.990;2022-09-04T07:35:43;18.00;99.90
12111;DHT22;6119;52.372;8.990;2022-09-04T07:38:36;18.20;99.90
12111;DHT22;6119;52.372;8.990;2022-09-04T07:41:29;18.20;99.90
12111;DHT22;6119;52.372;8.990;2022-09-04T07:44:21;18.30;99.90
12111;DHT22;6119;52.372;8.990;2022-09-04T07:47:19;18.40;99.90
12111;DHT22;6119;52.372;8.990;2022-09-04T07:50:09;18.50;99.90
12111;DHT22;6119;52.372;8.990;2022-09-04T07:53:12;18.60;99.90
12111;DHT22;6119;52.372;8.990;2022-09-04T07:56:07;18.70;99.90
12111;DHT22;6119;52.372;8.990;2022-09-04T07:59:17;18.70;99.90
12111;DHT22;6119;52.372;8.990;2022-09-04T08:05:23;18.90;99.90
12111;DHT22;6119;52.372;8.990;2022-09-04T08:11:52;19.20;99.90
12111;DHT22;6119;52.372;8.990;2022-09-04T08:14:52;19.30;99.90
12111;DHT22;6119;52.372;8.990;2022-09-04T08:17:51;19.40;99.90
12111;DHT22;6119;52.372;8.990;2022-09-04T08:20:44;19.60;99.90
12111;DHT22;6119;52.372;8.990;2022-09-04T08:23:46;19.60;99.90
12111;DHT22;6119;52.372;8.990;2022-09-04T08:26:49;19.70;99.90
12111;DHT22;6119;52.372;8.990;2022-09-04T08:29:56;19.80;99.90
12111;DHT22;6119;52.372;8.990;2022-09-04T08:33:22;20.00;99.90
12111;DHT22;6119;52.372;8.990;2022-09-04T08:36:21;20.10;99.90
12111;DHT22;6119;52.372;8.990;2022-09-04T08:39:15;20.20;99.90
12111;DHT22;6119;52.372;8.990;2022-09-04T08:49:19;20.50;99.90
12111;DHT22;6119;52.372;8.990;2022-09-04T08:52:25;20.70;99.90
12111;DHT22;6119;52.372;8.990;2022-09-04T08:55:34;20.80;99.90
12111;DHT22;6119;52.372;8.990;2022-09-04T08:58:42;20.90;99.90
12111;DHT22;6119;52.372;8.990;2022-09-04T09:05:37;21.20;99.90
12111;DHT22;6119;52.372;8.990;2022-09-04T09:18:34;21.80;99.90
12111;DHT22;6119;52.372;8.990;2022-09-04T09:21:37;21.90;99.90
12111;DHT22;6119;52.372;8.990;2022-09-04T09:24:47;22.10;99.90
12111;DHT22;6119;52.372;8.990;2022-09-04T09:28:11;22.20;99.90
12111;DHT22;6119;52.372;8.990;2022-09-04T09:31:28;22.30;99.90
12111;DHT22;6119;52.372;8.990;2022-09-04T09:38:11;22.50;99.90
12111;DHT22;6119;52.372;8.990;2022-09-04T09:44:55;23.00;99.90
12111;DHT22;6119;52.372;8.990;2022-09-04T09:48:31;23.10;99.90
12111;DHT22;6119;52.372;8.990;2022-09-04T09:51:46;23.20;99.90
12111;DHT22;6119;52.372;8.990;2022-09-04T09:58:23;23.40;99.90
12111;DHT22;6119;52.372;8.990;2022-09-04T10:01:27;23.60;99.90
12111;DHT22;6119;52.372;8.990;2022-09-04T10:04:48;23.70;99.90
12111;DHT22;6119;52.372;8.990;2022-09-04T10:08:02;23.80;99.80
12111;DHT22;6119;52.372;8.990;2022-09-04T10:14:45;23.90;99.20
12111;DHT22;6119;52.372;8.990;2022-09-04T10:17:59;24.30;99.50
12111;DHT22;6119;52.372;8.990;2022-09-04T10:24:42;24.60;98.20
12111;DHT22;6119;52.372;8.990;2022-09-04T10:27:58;24.50;97.90
12111;DHT22;6119;52.372;8.990;2022-09-04T10:31:11;24.70;98.00
12111;DHT22;6119;52.372;8.990;2022-09-04T10:34:18;25.10;97.40
12111;DHT22;6119;52.372;8.990;2022-09-04T10:37:25;25.20;96.20
12111;DHT22;6119;52.372;8.990;2022-09-04T10:40:24;25.30;97.40
12111;DHT22;6119;52.372;8.990;2022-09-04T10:43:43;25.30;96.30
12111;DHT22;6119;52.372;8.990;2022-09-04T10:46:39;25.40;96.20
12111;DHT22;6119;52.372;8.990;2022-09-04T10:49:49;25.60;96.50
12111;DHT22;6119;52.372;8.990;2022-09-04T10:56:04;26.00;95.50
12111;DHT22;6119;52.372;8.990;2022-09-04T11:02:45;26.30;95.20
12111;DHT22;6119;52.372;8.990;2022-09-04T11:09:23;26.20;94.80
12111;DHT22;6119;52.372;8.990;2022-09-04T11:15:55;26.20;93.90
12111;DHT22;6119;52.372;8.990;2022-09-04T11:19:06;26.30;94.20
12111;DHT22;6119;52.372;8.990;2022-09-04T11:22:49;26.50;94.30
12111;DHT22;6119;52.372;8.990;2022-09-04T11:26:07;26.80;93.80
12111;DHT22;6119;52.372;8.990;2022-09-04T11:29:07;26.80;92.90
12111;DHT22;6119;52.372;8.990;2022-09-04T11:32:09;26.70;92.50
12111;DHT22;6119;52.372;8.990;2022-09-04T11:35:21;26.70;93.30
12111;DHT22;6119;52.372;8.990;2022-09-04T11:38:15;26.80;92.90
12111;DHT22;6119;52.372;8.990;2022-09-04T11:44:49;27.20;92.50
12111;DHT22;6119;52.372;8.990;2022-09-04T11:54:20;27.20;92.70
12111;DHT22;6119;52.372;8.990;2022-09-04T11:57:21;27.20;92.10
12111;DHT22;6119;52.372;8.990;2022-09-04T12:00:14;27.20;92.20
12111;DHT22;6119;52.372;8.990;2022-09-04T12:03:29;27.40;91.20
12111;DHT22;6119;52.372;8.990;2022-09-04T12:06:34;27.70;91.80
12111;DHT22;6119;52.372;8.990;2022-09-04T12:09:42;27.50;91.50
12111;DHT22;6119;52.372;8.990;2022-09-04T12:12:54;27.70;91.60
12111;DHT22;6119;52.372;8.990;2022-09-04T12:16:16;27.80;91.20
12111;DHT22;6119;52.372;8.990;2022-09-04T12:26:21;27.80;91.10
12111;DHT22;6119;52.372;8.990;2022-09-04T12:29:34;27.90;91.20
12111;DHT22;6119;52.372;8.990;2022-09-04T12:39:31;27.80;91.60
12111;DHT22;6119;52.372;8.990;2022-09-04T12:42:23;27.90;91.40
12111;DHT22;6119;52.372;8.990;2022-09-04T12:45:18;28.00;91.30
12111;DHT22;6119;52.372;8.990;2022-09-04T12:48:12;28.30;91.00
12111;DHT22;6119;52.372;8.990;2022-09-04T12:51:11;28.30;90.90
12111;DHT22;6119;52.372;8.990;2022-09-04T12:54:13;28.50;90.80
12111;DHT22;6119;52.372;8.990;2022-09-04T12:57:17;28.40;90.60
12111;DHT22;6119;52.372;8.990;2022-09-04T13:00:09;28.50;90.80
12111;DHT22;6119;52.372;8.990;2022-09-04T13:03:03;28.60;90.70
12111;DHT22;6119;52.372;8.990;2022-09-04T13:06:12;28.60;90.50
12111;DHT22;6119;52.372;8.990;2022-09-04T13:09:09;28.50;90.40
12111;DHT22;6119;52.372;8.990;2022-09-04T13:12:07;28.10;90.20
12111;DHT22;6119;52.372;8.990;2022-09-04T13:15:21;28.40;91.00
12111;DHT22;6119;52.372;8.990;2022-09-04T13:18:19;28.50;91.10
12111;DHT22;6119;52.372;8.990;2022-09-04T13:21:20;28.60;90.90
12111;DHT22;6119;52.372;8.990;2022-09-04T13:24:20;28.80;90.20
12111;DHT22;6119;52.372;8.990;2022-09-04T13:27:21;28.80;90.30
12111;DHT22;6119;52.372;8.990;2022-09-04T13:30:13;29.00;90.30
12111;DHT22;6119;52.372;8.990;2022-09-04T13:33:14;28.70;89.60
12111;DHT22;6119;52.372;8.990;2022-09-04T13:36:10;28.90;90.40
12111;DHT22;6119;52.372;8.990;2022-09-04T13:42:44;28.90;89.40
12111;DHT22;6119;52.372;8.990;2022-09-04T13:45:40;28.70;89.60
12111;DHT22;6119;52.372;8.990;2022-09-04T13:48:34;28.80;90.10
12111;DHT22;6119;52.372;8.990;2022-09-04T13:51:25;28.60;89.90
12111;DHT22;6119;52.372;8.990;2022-09-04T13:54:20;28.70;90.10
12111;DHT22;6119;52.372;8.990;2022-09-04T13:57:14;28.70;89.50
12111;DHT22;6119;52.372;8.990;2022-09-04T14:00:04;28.80;89.60
12111;DHT22;6119;52.372;8.990;2022-09-04T14:02:57;29.20;90.40
12111;DHT22;6119;52.372;8.990;2022-09-04T14:05:45;29.30;89.60
12111;DHT22;6119;52.372;8.990;2022-09-04T14:08:31;29.50;88.80
12111;DHT22;6119;52.372;8.990;2022-09-04T14:11:30;29.30;88.30
12111;DHT22;6119;52.372;8.990;2022-09-04T14:14:53;29.50;90.00
12111;DHT22;6119;52.372;8.990;2022-09-04T14:17:51;29.50;88.30
12111;DHT22;6119;52.372;8.990;2022-09-04T14:20:47;29.60;89.20
12111;DHT22;6119;52.372;8.990;2022-09-04T14:23:43;29.70;88.20
12111;DHT22;6119;52.372;8.990;2022-09-04T14:26:41;29.50;89.10
12111;DHT22;6119;52.372;8.990;2022-09-04T14:29:36;29.40;89.00
12111;DHT22;6119;52.372;8.990;2022-09-04T14:32:34;29.50;89.30
12111;DHT22;6119;52.372;8.990;2022-09-04T14:35:32;29.50;86.90
12111;DHT22;6119;52.372;8.990;2022-09-04T14:38:36;29.50;88.20
12111;DHT22;6119;52.372;8.990;2022-09-04T14:41:35;29.60;88.00
12111;DHT22;6119;52.372;8.990;2022-09-04T14:44:35;29.70;88.00
12111;DHT22;6119;52.372;8.990;2022-09-04T14:47:33;29.80;87.60
12111;DHT22;6119;52.372;8.990;2022-09-04T14:50:24;30.00;87.30
12111;DHT22;6119;52.372;8.990;2022-09-04T14:53:21;29.60;87.30
12111;DHT22;6119;52.372;8.990;2022-09-04T14:56:19;29.60;87.00
12111;DHT22;6119;52.372;8.990;2022-09-04T14:59:14;29.80;87.20
12111;DHT22;6119;52.372;8.990;2022-09-04T15:02:20;29.90;86.70
12111;DHT22;6119;52.372;8.990;2022-09-04T15:05:16;29.70;86.30
12111;DHT22;6119;52.372;8.990;2022-09-04T15:08:06;29.70;86.50
12111;DHT22;6119;52.372;8.990;2022-09-04T15:10:57;29.60;86.40
12111;DHT22;6119;52.372;8.990;2022-09-04T15:13:52;29.50;86.60
12111;DHT22;6119;52.372;8.990;2022-09-04T15:16:44;29.70;86.20
12111;DHT22;6119;52.372;8.990;2022-09-04T15:19:42;29.80;86.60
12111;DHT22;6119;52.372;8.990;2022-09-04T15:22:35;29.90;86.30
12111;DHT22;6119;52.372;8.990;2022-09-04T15:25:38;29.90;85.20
12111;DHT22;6119;52.372;8.990;2022-09-04T15:28:47;29.90;86.10
12111;DHT22;6119;52.372;8.990;2022-09-04T15:31:36;29.80;86.50
12111;DHT22;6119;52.372;8.990;2022-09-04T15:34:25;29.80;85.20
12111;DHT22;6119;52.372;8.990;2022-09-04T15:37:18;29.70;85.60
12111;DHT22;6119;52.372;8.990;2022-09-04T15:40:08;29.80;85.50
12111;DHT22;6119;52.372;8.990;2022-09-04T15:43:11;29.90;85.20
12111;DHT22;6119;52.372;8.990;2022-09-04T15:46:08;29.50;86.00
12111;DHT22;6119;52.372;8.990;2022-09-04T15:49:24;29.70;86.80
12111;DHT22;6119;52.372;8.990;2022-09-04T15:52:28;29.70;86.40
12111;DHT22;6119;52.372;8.990;2022-09-04T15:55:24;29.60;85.30
12111;DHT22;6119;52.372;8.990;2022-09-04T15:58:16;29.30;84.80
12111;DHT22;6119;52.372;8.990;2022-09-04T16:01:10;29.50;86.70
12111;DHT22;6119;52.372;8.990;2022-09-04T16:04:04;29.80;86.60
12111;DHT22;6119;52.372;8.990;2022-09-04T16:07:17;29.60;85.10
12111;DHT22;6119;52.372;8.990;2022-09-04T16:10:21;29.70;86.00
12111;DHT22;6119;52.372;8.990;2022-09-04T16:13:28;29.60;86.10
12111;DHT22;6119;52.372;8.990;2022-09-04T16:16:21;29.30;84.80
12111;DHT22;6119;52.372;8.990;2022-09-04T16:19:21;29.60;85.40
12111;DHT22;6119;52.372;8.990;2022-09-04T16:22:21;29.70;85.50
12111;DHT22;6119;52.372;8.990;2022-09-04T16:25:21;29.50;85.00
12111;DHT22;6119;52.372;8.990;2022-09-04T16:28:15;29.40;86.10
12111;DHT22;6119;52.372;8.990;2022-09-04T16:31:11;29.10;84.60
12111;DHT22;6119;52.372;8.990;2022-09-04T16:34:15;29.10;86.20
12111;DHT22;6119;52.372;8.990;2022-09-04T16:37:10;28.90;86.00
12111;DHT22;6119;52.372;8.990;2022-09-04T16:40:09;28.70;86.50
12111;DHT22;6119;52.372;8.990;2022-09-04T16:43:02;28.60;86.80
12111;DHT22;6119;52.372;8.990;2022-09-04T16:46:04;28.40;90.00
12111;DHT22;6119;52.372;8.990;2022-09-04T16:48:55;28.50;90.40
12111;DHT22;6119;52.372;8.990;2022-09-04T16:51:46;28.10;90.20
12111;DHT22;6119;52.372;8.990;2022-09-04T16:54:38;28.10;89.60
12111;DHT22;6119;52.372;8.990;2022-09-04T16:57:36;27.80;89.20
12111;DHT22;6119;52.372;8.990;2022-09-04T17:00:26;27.80;91.00
12111;DHT22;6119;52.372;8.990;2022-09-04T17:03:19;27.50;90.00
12111;DHT22;6119;52.372;8.990;2022-09-04T17:06:16;27.40;90.80
12111;DHT22;6119;52.372;8.990;2022-09-04T17:09:15;27.50;90.30
12111;DHT22;6119;52.372;8.990;2022-09-04T17:12:19;27.30;92.00
12111;DHT22;6119;52.372;8.990;2022-09-04T17:15:15;27.20;92.70
12111;DHT22;6119;52.372;8.990;2022-09-04T17:18:06;27.10;91.70
12111;DHT22;6119;52.372;8.990;2022-09-04T17:20:58;26.90;91.80
12111;DHT22;6119;52.372;8.990;2022-09-04T17:24:12;26.80;93.00
12111;DHT22;6119;52.372;8.990;2022-09-04T17:27:24;26.70;91.40
12111;DHT22;6119;52.372;8.990;2022-09-04T17:30:36;26.60;93.10
12111;DHT22;6119;52.372;8.990;2022-09-04T17:33:27;26.40;91.80
12111;DHT22;6119;52.372;8.990;2022-09-04T17:36:42;26.30;94.70
12111;DHT22;6119;52.372;8.990;2022-09-04T17:39:58;26.20;93.70
12111;DHT22;6119;52.372;8.990;2022-09-04T17:43:19;26.20;94.00
12111;DHT22;6119;52.372;8.990;2022-09-04T17:46:17;26.10;94.30
12111;DHT22;6119;52.372;8.990;2022-09-04T17:49:15;26.10;94.90
12111;DHT22;6119;52.372;8.990;2022-09-04T17:52:05;25.90;96.20
12111;DHT22;6119;52.372;8.990;2022-09-04T17:55:00;25.80;97.20
12111;DHT22;6119;52.372;8.990;2022-09-04T17:57:54;25.60;96.60
12111;DHT22;6119;52.372;8.990;2022-09-04T18:00:51;25.40;98.30
12111;DHT22;6119;52.372;8.990;2022-09-04T18:04:19;25.30;99.30
12111;DHT22;6119;52.372;8.990;2022-09-04T18:07:13;25.20;98.30
12111;DHT22;6119;52.372;8.990;2022-09-04T18:10:29;25.10;97.10
12111;DHT22;6119;52.372;8.990;2022-09-04T18:13:29;25.00;98.90
12111;DHT22;6119;52.372;8.990;2022-09-04T18:20:06;25.00;97.40
12111;DHT22;6119;52.372;8.990;2022-09-04T18:23:25;24.90;96.90
12111;DHT22;6119;52.372;8.990;2022-09-04T18:26:22;24.80;97.90
12111;DHT22;6119;52.372;8.990;2022-09-04T18:29:31;24.80;98.10
12111;DHT22;6119;52.372;8.990;2022-09-04T18:32:45;24.70;98.40
12111;DHT22;6119;52.372;8.990;2022-09-04T18:36:00;24.60;97.80
12111;DHT22;6119;52.372;8.990;2022-09-04T18:39:11;24.60;98.20
12111;DHT22;6119;52.372;8.990;2022-09-04T18:42:20;24.60;97.80
12111;DHT22;6119;52.372;8.990;2022-09-04T18:45:39;24.50;98.40
12111;DHT22;6119;52.372;8.990;2022-09-04T18:48:50;24.50;98.30
12111;DHT22;6119;52.372;8.990;2022-09-04T18:52:08;24.40;98.00
12111;DHT22;6119;52.372;8.990;2022-09-04T18:55:00;24.30;98.10
12111;DHT22;6119;52.372;8.990;2022-09-04T18:57:56;24.30;98.60
12111;DHT22;6119;52.372;8.990;2022-09-04T19:00:46;24.20;98.80
12111;DHT22;6119;52.372;8.990;2022-09-04T19:03:42;24.20;98.40
12111;DHT22;6119;52.372;8.990;2022-09-04T19:06:35;24.50;98.80
12111;DHT22;6119;52.372;8.990;2022-09-04T19:09:26;24.10;97.70
12111;DHT22;6119;52.372;8.990;2022-09-04T19:12:24;24.10;98.00
12111;DHT22;6119;52.372;8.990;2022-09-04T19:15:47;24.10;98.60
12111;DHT22;6119;52.372;8.990;2022-09-04T19:18:47;23.90;98.30
12111;DHT22;6119;52.372;8.990;2022-09-04T19:21:37;23.90;98.80
12111;DHT22;6119;52.372;8.990;2022-09-04T19:24:33;23.90;98.20
12111;DHT22;6119;52.372;8.990;2022-09-04T19:27:26;23.80;97.80
12111;DHT22;6119;52.372;8.990;2022-09-04T19:30:15;23.80;99.70
12111;DHT22;6119;52.372;8.990;2022-09-04T19:33:16;23.80;99.10
12111;DHT22;6119;52.372;8.990;2022-09-04T19:36:10;23.70;98.80
12111;DHT22;6119;52.372;8.990;2022-09-04T19:39:08;23.60;98.70
12111;DHT22;6119;52.372;8.990;2022-09-04T19:42:21;23.60;99.30
12111;DHT22;6119;52.372;8.990;2022-09-04T19:45:35;23.60;99.20
12111;DHT22;6119;52.372;8.990;2022-09-04T19:48:56;23.50;99.50
12111;DHT22;6119;52.372;8.990;2022-09-04T19:52:07;23.50;99.60
12111;DHT22;6119;52.372;8.990;2022-09-04T19:55:20;23.40;99.40
12111;DHT22;6119;52.372;8.990;2022-09-04T19:58:13;23.40;99.30
12111;DHT22;6119;52.372;8.990;2022-09-04T20:01:02;23.40;99.10
12111;DHT22;6119;52.372;8.990;2022-09-04T20:03:55;23.30;99.60
12111;DHT22;6119;52.372;8.990;2022-09-04T20:06:45;23.30;99.10
12111;DHT22;6119;52.372;8.990;2022-09-04T20:09:36;23.30;99.30
12111;DHT22;6119;52.372;8.990;2022-09-04T20:12:29;23.20;99.60
12111;DHT22;6119;52.372;8.990;2022-09-04T20:15:20;23.20;99.90
12111;DHT22;6119;52.372;8.990;2022-09-04T20:18:19;23.20;99.50
12111;DHT22;6119;52.372;8.990;2022-09-04T20:21:15;23.20;99.90
12111;DHT22;6119;52.372;8.990;2022-09-04T20:24:04;23.20;99.50
12111;DHT22;6119;52.372;8.990;2022-09-04T20:26:59;23.10;99.60
12111;DHT22;6119;52.372;8.990;2022-09-04T20:29:54;23.00;99.20
12111;DHT22;6119;52.372;8.990;2022-09-04T20:32:45;23.00;99.90
12111;DHT22;6119;52.372;8.990;2022-09-04T20:35:43;23.00;99.90
12111;DHT22;6119;52.372;8.990;2022-09-04T20:38:39;23.00;99.90
12111;DHT22;6119;52.372;8.990;2022-09-04T20:41:33;22.90;99.60
12111;DHT22;6119;52.372;8.990;2022-09-04T20:44:26;23.00;99.90
12111;DHT22;6119;52.372;8.990;2022-09-04T20:47:18;22.90;99.90
12111;DHT22;6119;52.372;8.990;2022-09-04T20:50:33;22.90;99.90
12111;DHT22;6119;52.372;8.990;2022-09-04T20:53:52;22.90;99.90
12111;DHT22;6119;52.372;8.990;2022-09-04T20:56:50;22.90;99.90